createdAt,value
2019-02-02T00:00:34.025Z,930.61
2019-02-02T00:01:34.149Z,930.57
2019-02-02T00:02:34.115Z,930.60
2019-02-02T00:03:34.100Z,930.58
2019-02-02T00:04:34.087Z,930.62
2019-02-02T00:05:34.098Z,930.63
2019-02-02T00:06:34.223Z,930.67
2019-02-02T00:07:34.138Z,930.70
2019-02-02T00:08:34.160Z,930.72
2019-02-02T00:09:34.179Z,930.71
2019-02-02T00:10:34.189Z,930.72
2019-02-02T00:11:34.221Z,930.73
2019-02-02T00:12:34.368Z,930.72
2019-02-02T00:13:34.252Z,930.72
2019-02-02T00:14:34.281Z,930.74
2019-02-02T00:15:34.433Z,930.79
2019-02-02T00:16:34.304Z,930.82
2019-02-02T00:17:34.489Z,930.83
2019-02-02T00:18:34.349Z,930.83
2019-02-02T00:19:34.357Z,930.83
2019-02-02T00:20:34.427Z,930.86
2019-02-02T00:21:34.512Z,930.89
2019-02-02T00:22:34.551Z,930.89
2019-02-02T00:23:34.542Z,930.92
2019-02-02T00:24:34.458Z,930.93
2019-02-02T00:25:34.472Z,930.94
2019-02-02T00:26:34.498Z,930.98
2019-02-02T00:27:41.041Z,930.98
2019-02-02T00:28:34.516Z,930.94
2019-02-02T00:29:34.556Z,930.99
2019-02-02T00:30:34.548Z,931.00
2019-02-02T00:31:34.590Z,931.03
2019-02-02T00:32:34.740Z,931.01
2019-02-02T00:33:34.595Z,931.08
2019-02-02T00:34:34.740Z,931.02
2019-02-02T00:35:34.682Z,931.06
2019-02-02T00:36:34.771Z,931.10
2019-02-02T00:37:34.889Z,931.08
2019-02-02T00:38:34.802Z,931.06
2019-02-02T00:39:34.821Z,931.04
2019-02-02T00:40:34.727Z,931.01
2019-02-02T00:41:34.761Z,931.04
2019-02-02T00:42:34.805Z,931.03
2019-02-02T00:43:34.906Z,931.01
2019-02-02T00:44:34.789Z,930.99
2019-02-02T00:45:34.924Z,930.98
2019-02-02T00:46:35.029Z,930.98
2019-02-02T00:47:34.958Z,930.98
2019-02-02T00:48:34.974Z,930.95
2019-02-02T00:49:34.892Z,930.95
2019-02-02T00:50:34.903Z,930.98
2019-02-02T00:51:35.019Z,931.02
2019-02-02T00:52:34.930Z,931.02
2019-02-02T00:53:35.069Z,931.01
2019-02-02T00:54:35.086Z,931.06
2019-02-02T00:55:35.095Z,931.08
2019-02-02T00:56:35.214Z,931.06
2019-02-02T00:57:35.131Z,931.12
2019-02-02T00:58:35.146Z,931.12
2019-02-02T00:59:35.172Z,931.13
2019-02-02T01:00:35.076Z,931.16
2019-02-02T01:01:35.191Z,931.18
2019-02-02T01:02:35.221Z,931.18
2019-02-02T01:03:35.125Z,931.18
2019-02-02T01:04:35.127Z,931.20
2019-02-02T01:05:35.144Z,931.18
2019-02-02T01:06:35.313Z,931.20
2019-02-02T01:07:35.186Z,931.18
2019-02-02T01:08:35.217Z,931.19
2019-02-02T01:09:35.336Z,931.22
2019-02-02T01:10:35.246Z,931.23
2019-02-02T01:11:35.464Z,931.21
2019-02-02T01:12:35.390Z,931.20
2019-02-02T01:13:35.301Z,931.23
2019-02-02T01:14:35.332Z,931.20
2019-02-02T01:15:35.330Z,931.22
2019-02-02T01:16:35.552Z,931.21
2019-02-02T01:17:35.471Z,931.18
2019-02-02T01:18:35.488Z,931.20
2019-02-02T01:19:35.508Z,931.24
2019-02-02T01:20:35.398Z,931.26
2019-02-02T01:21:35.580Z,931.25
2019-02-02T01:22:35.421Z,931.28
2019-02-02T01:23:35.451Z,931.30
2019-02-02T01:24:35.589Z,931.30
2019-02-02T01:25:35.617Z,931.30
2019-02-02T01:26:35.558Z,931.32
2019-02-02T01:27:35.568Z,931.32
2019-02-02T01:28:35.548Z,931.32
2019-02-02T01:29:35.582Z,931.31
2019-02-02T01:30:35.688Z,931.29
2019-02-02T01:31:35.693Z,931.30
2019-02-02T01:32:35.730Z,931.29
2019-02-02T01:33:35.752Z,931.31
2019-02-02T01:34:35.647Z,931.29
2019-02-02T01:35:35.656Z,931.31
2019-02-02T01:36:35.822Z,931.27
2019-02-02T01:37:35.704Z,931.28
2019-02-02T01:38:35.834Z,931.27
2019-02-02T01:39:35.727Z,931.28
2019-02-02T01:40:35.759Z,931.24
2019-02-02T01:41:35.976Z,931.24
2019-02-02T01:42:35.793Z,931.23
2019-02-02T01:43:35.780Z,931.24
2019-02-02T01:44:35.937Z,931.23
2019-02-02T01:45:35.941Z,931.25
2019-02-02T01:46:35.982Z,931.27
2019-02-02T01:47:35.863Z,931.25
2019-02-02T01:48:35.992Z,931.28
2019-02-02T01:49:36.017Z,931.24
2019-02-02T01:50:36.028Z,931.24
2019-02-02T01:51:36.015Z,931.26
2019-02-02T01:52:36.059Z,931.24
2019-02-02T01:53:35.954Z,931.24
2019-02-02T01:54:38.328Z,931.22
2019-02-02T01:55:35.998Z,931.21
2019-02-02T01:56:36.138Z,931.19
2019-02-02T01:57:36.021Z,931.18
2019-02-02T01:58:36.055Z,931.17
2019-02-02T01:59:36.066Z,931.20
2019-02-02T02:00:36.193Z,931.18
2019-02-02T02:01:36.157Z,931.19
2019-02-02T02:02:36.131Z,931.18
2019-02-02T02:03:36.176Z,931.19
2019-02-02T02:04:36.155Z,931.18
2019-02-02T02:05:36.290Z,931.17
2019-02-02T02:06:36.355Z,931.13
2019-02-02T02:07:36.316Z,931.10
2019-02-02T02:08:36.240Z,931.13
2019-02-02T02:09:36.246Z,931.11
2019-02-02T02:10:36.273Z,931.14
2019-02-02T02:11:36.324Z,931.11
2019-02-02T02:12:36.399Z,931.11
2019-02-02T02:13:36.415Z,931.18
2019-02-02T02:14:36.432Z,931.14
2019-02-02T02:15:36.449Z,931.11
2019-02-02T02:16:36.402Z,931.16
2019-02-02T02:17:36.493Z,931.13
2019-02-02T02:18:36.375Z,931.19
2019-02-02T02:19:36.522Z,931.17
2019-02-02T02:20:36.440Z,931.15
2019-02-02T02:21:36.520Z,931.17
2019-02-02T02:22:41.156Z,931.13
2019-02-02T02:23:36.578Z,931.14
2019-02-02T02:24:36.500Z,931.13
2019-02-02T02:25:36.510Z,931.16
2019-02-02T02:26:36.736Z,931.16
2019-02-02T02:27:36.538Z,931.14
2019-02-02T02:28:36.671Z,931.13
2019-02-02T02:29:36.567Z,931.19
2019-02-02T02:30:36.576Z,931.17
2019-02-02T02:31:36.710Z,931.18
2019-02-02T02:32:36.630Z,931.19
2019-02-02T02:33:36.632Z,931.17
2019-02-02T02:34:36.767Z,931.19
2019-02-02T02:35:36.783Z,931.16
2019-02-02T02:36:36.849Z,931.20
2019-02-02T02:37:36.826Z,931.18
2019-02-02T02:38:36.718Z,931.16
2019-02-02T02:39:36.750Z,931.15
2019-02-02T02:40:36.743Z,931.15
2019-02-02T02:41:36.827Z,931.10
2019-02-02T02:42:36.777Z,931.11
2019-02-02T02:43:36.817Z,931.11
2019-02-02T02:44:36.829Z,931.07
2019-02-02T02:45:36.846Z,931.07
2019-02-02T02:46:37.073Z,931.06
2019-02-02T02:47:36.980Z,931.04
2019-02-02T02:48:37.002Z,931.02
2019-02-02T02:49:36.909Z,931.04
2019-02-02T02:50:36.909Z,931.05
2019-02-02T02:51:37.151Z,931.06
2019-02-02T02:52:37.069Z,931.04
2019-02-02T02:53:37.091Z,931.03
2019-02-02T02:54:37.106Z,931.03
2019-02-02T02:55:37.116Z,931.05
2019-02-02T02:56:37.183Z,931.03
2019-02-02T02:57:37.162Z,931.04
2019-02-02T02:58:41.647Z,931.05
2019-02-02T02:59:37.083Z,931.02
2019-02-02T03:00:37.200Z,931.04
2019-02-02T03:01:37.215Z,931.04
2019-02-02T03:02:37.110Z,931.02
2019-02-02T03:03:37.131Z,930.99
2019-02-02T03:04:37.167Z,930.99
2019-02-02T03:05:37.293Z,931.03
2019-02-02T03:06:37.326Z,931.05
2019-02-02T03:07:37.202Z,931.04
2019-02-02T03:08:37.212Z,931.04
2019-02-02T03:09:37.234Z,931.04
2019-02-02T03:10:37.278Z,931.08
2019-02-02T03:11:37.362Z,931.03
2019-02-02T03:12:37.278Z,931.05
2019-02-02T03:13:37.300Z,931.00
2019-02-02T03:14:37.434Z,931.01
2019-02-02T03:15:37.334Z,931.00
2019-02-02T03:16:37.568Z,930.98
2019-02-02T03:17:37.373Z,930.99
2019-02-02T03:18:37.369Z,930.95
2019-02-02T03:19:37.512Z,930.92
2019-02-02T03:20:37.417Z,930.94
2019-02-02T03:21:37.540Z,930.93
2019-02-02T03:22:37.447Z,930.90
2019-02-02T03:23:37.465Z,930.92
2019-02-02T03:24:37.502Z,930.94
2019-02-02T03:25:37.514Z,930.89
2019-02-02T03:26:37.679Z,930.87
2019-02-02T03:27:37.646Z,930.90
2019-02-02T03:28:37.575Z,930.88
2019-02-02T03:29:37.558Z,930.87
2019-02-02T03:30:37.587Z,930.84
2019-02-02T03:31:37.817Z,930.83
2019-02-02T03:32:37.624Z,930.83
2019-02-02T03:33:37.618Z,930.83
2019-02-02T03:34:37.651Z,930.83
2019-02-02T03:35:37.674Z,930.81
2019-02-02T03:36:37.721Z,930.79
2019-02-02T03:37:37.809Z,930.76
2019-02-02T03:38:37.713Z,930.76
2019-02-02T03:39:37.739Z,930.79
2019-02-02T03:40:37.799Z,930.78
2019-02-02T03:41:37.862Z,930.79
2019-02-02T03:42:37.816Z,930.78
2019-02-02T03:43:37.907Z,930.75
2019-02-02T03:44:37.927Z,930.74
2019-02-02T03:45:40.656Z,930.78
2019-02-02T03:46:37.910Z,930.75
2019-02-02T03:47:37.853Z,930.79
2019-02-02T03:48:37.881Z,930.75
2019-02-02T03:49:37.906Z,930.74
2019-02-02T03:50:38.033Z,930.73
2019-02-02T03:51:38.087Z,930.76
2019-02-02T03:52:38.279Z,930.75
2019-02-02T03:53:41.007Z,930.76
2019-02-02T03:54:38.091Z,930.75
2019-02-02T03:55:38.114Z,930.72
2019-02-02T03:56:38.073Z,930.71
2019-02-02T03:57:38.027Z,930.69
2019-02-02T03:58:38.168Z,930.68
2019-02-02T03:59:38.075Z,930.65
2019-02-02T04:00:38.126Z,930.62
2019-02-02T04:01:38.207Z,930.62
2019-02-02T04:02:38.230Z,930.60
2019-02-02T04:03:38.131Z,930.57
2019-02-02T04:04:38.131Z,930.57
2019-02-02T04:05:38.151Z,930.57
2019-02-02T04:06:38.388Z,930.53
2019-02-02T04:07:38.302Z,930.51
2019-02-02T04:08:38.199Z,930.49
2019-02-02T04:09:38.228Z,930.51
2019-02-02T04:10:38.289Z,930.50
2019-02-02T04:11:38.440Z,930.49
2019-02-02T04:12:38.293Z,930.51
2019-02-02T04:13:38.403Z,930.48
2019-02-02T04:14:38.346Z,930.48
2019-02-02T04:15:38.305Z,930.50
2019-02-02T04:16:38.610Z,930.51
2019-02-02T04:17:38.362Z,930.50
2019-02-02T04:18:38.480Z,930.52
2019-02-02T04:19:38.501Z,930.50
2019-02-02T04:20:38.386Z,930.57
2019-02-02T04:21:38.527Z,930.57
2019-02-02T04:22:38.561Z,930.57
2019-02-02T04:23:38.495Z,930.53
2019-02-02T04:24:38.460Z,930.52
2019-02-02T04:25:38.537Z,930.47
2019-02-02T04:26:38.718Z,930.45
2019-02-02T04:27:38.508Z,930.46
2019-02-02T04:28:38.655Z,930.46
2019-02-02T04:29:38.539Z,930.42
2019-02-02T04:30:38.690Z,930.41
2019-02-02T04:31:38.682Z,930.39
2019-02-02T04:32:38.589Z,930.37
2019-02-02T04:33:38.622Z,930.40
2019-02-02T04:34:38.630Z,930.35
2019-02-02T04:35:38.653Z,930.37
2019-02-02T04:36:38.758Z,930.38
2019-02-02T04:37:38.795Z,930.42
2019-02-02T04:38:38.697Z,930.41
2019-02-02T04:39:38.825Z,930.42
2019-02-02T04:40:38.737Z,930.39
2019-02-02T04:41:38.910Z,930.43
2019-02-02T04:42:38.812Z,930.37
2019-02-02T04:43:38.785Z,930.36
2019-02-02T04:44:38.907Z,930.38
2019-02-02T04:45:38.923Z,930.33
2019-02-02T04:46:39.038Z,930.32
2019-02-02T04:47:38.823Z,930.30
2019-02-02T04:48:38.872Z,930.30
2019-02-02T04:49:38.996Z,930.27
2019-02-02T04:50:39.009Z,930.23
2019-02-02T04:51:39.118Z,930.18
2019-02-02T04:52:38.917Z,930.20
2019-02-02T04:53:38.989Z,930.17
2019-02-02T04:54:38.962Z,930.13
2019-02-02T04:55:38.980Z,930.14
2019-02-02T04:56:39.155Z,930.10
2019-02-02T04:57:39.000Z,930.09
2019-02-02T04:58:39.137Z,930.07
2019-02-02T04:59:39.045Z,930.07
2019-02-02T05:00:39.079Z,930.02
2019-02-02T05:01:39.333Z,929.96
2019-02-02T05:02:39.086Z,929.98
2019-02-02T05:03:39.213Z,929.96
2019-02-02T05:04:39.125Z,929.88
2019-02-02T05:05:39.143Z,929.89
2019-02-02T05:06:39.236Z,929.85
2019-02-02T05:07:39.183Z,929.83
2019-02-02T05:08:39.304Z,929.83
2019-02-02T05:09:39.199Z,929.84
2019-02-02T05:10:39.209Z,929.85
2019-02-02T05:11:39.494Z,929.87
2019-02-02T05:12:39.248Z,929.89
2019-02-02T05:13:39.264Z,929.87
2019-02-02T05:14:39.302Z,929.91
2019-02-02T05:15:39.287Z,929.95
2019-02-02T05:16:39.432Z,929.92
2019-02-02T05:17:39.369Z,930.00
2019-02-02T05:18:39.459Z,929.99
2019-02-02T05:19:39.472Z,930.03
2019-02-02T05:20:39.377Z,930.02
2019-02-02T05:21:39.604Z,930.05
2019-02-02T05:22:39.409Z,930.09
2019-02-02T05:23:39.444Z,930.07
2019-02-02T05:24:39.441Z,930.06
2019-02-02T05:25:39.448Z,930.07
2019-02-02T05:26:39.582Z,930.09
2019-02-02T05:27:39.604Z,930.02
2019-02-02T05:28:39.629Z,930.01
2019-02-02T05:29:41.549Z,930.02
2019-02-02T05:30:39.543Z,930.01
2019-02-02T05:31:39.769Z,930.01
2019-02-02T05:32:39.571Z,930.01
2019-02-02T05:33:39.707Z,929.99
2019-02-02T05:34:39.591Z,930.00
2019-02-02T05:35:39.642Z,930.00
2019-02-02T05:36:39.775Z,929.95
2019-02-02T05:37:39.650Z,930.00
2019-02-02T05:38:39.675Z,929.95
2019-02-02T05:39:39.689Z,929.96
2019-02-02T05:40:39.717Z,929.97
2019-02-02T05:41:39.810Z,929.96
2019-02-02T05:42:39.847Z,929.98
2019-02-02T05:43:39.863Z,929.99
2019-02-02T05:44:39.753Z,930.03
2019-02-02T05:45:39.778Z,930.01
2019-02-02T05:46:39.906Z,930.07
2019-02-02T05:47:39.856Z,930.08
2019-02-02T05:48:39.941Z,930.12
2019-02-02T05:49:39.842Z,930.14
2019-02-02T05:50:39.880Z,930.12
2019-02-02T05:51:39.986Z,930.13
2019-02-02T05:52:40.029Z,930.14
2019-02-02T05:53:40.022Z,930.12
2019-02-02T05:54:39.920Z,930.14
2019-02-02T05:55:39.916Z,930.14
2019-02-02T05:56:39.939Z,930.15
2019-02-02T05:57:40.119Z,930.16
2019-02-02T05:58:40.096Z,930.15
2019-02-02T05:59:39.999Z,930.19
2019-02-02T06:00:40.010Z,930.19
2019-02-02T06:01:40.040Z,930.21
2019-02-02T06:02:40.111Z,930.21
2019-02-02T06:03:40.081Z,930.19
2019-02-02T06:04:40.140Z,930.20
2019-02-02T06:05:40.212Z,930.19
2019-02-02T06:06:40.223Z,930.15
2019-02-02T06:07:40.338Z,930.13
2019-02-02T06:08:40.141Z,930.18
2019-02-02T06:09:40.166Z,930.17
2019-02-02T06:10:40.290Z,930.20
2019-02-02T06:11:40.183Z,930.24
2019-02-02T06:12:40.305Z,930.26
2019-02-02T06:13:40.227Z,930.25
2019-02-02T06:14:40.226Z,930.26
2019-02-02T06:15:40.268Z,930.28
2019-02-02T06:16:40.390Z,930.27
2019-02-02T06:17:40.375Z,930.25
2019-02-02T06:18:40.293Z,930.22
2019-02-02T06:19:40.434Z,930.19
2019-02-02T06:20:40.340Z,930.16
2019-02-02T06:21:40.349Z,930.17
2019-02-02T06:22:40.507Z,930.12
2019-02-02T06:23:40.398Z,930.08
2019-02-02T06:24:40.481Z,930.04
2019-02-02T06:25:40.400Z,930.02
2019-02-02T06:26:40.433Z,930.02
2019-02-02T06:27:40.487Z,929.99
2019-02-02T06:28:40.469Z,929.99
2019-02-02T06:29:40.519Z,929.98
2019-02-02T06:30:40.499Z,929.99
2019-02-02T06:31:40.620Z,930.04
2019-02-02T06:32:40.642Z,930.05
2019-02-02T06:33:40.557Z,930.03
2019-02-02T06:34:40.558Z,930.07
2019-02-02T06:35:40.562Z,930.08
2019-02-02T06:36:40.581Z,930.08
2019-02-02T06:37:40.768Z,930.16
2019-02-02T06:38:40.616Z,930.16
2019-02-02T06:39:40.627Z,930.21
2019-02-02T06:40:40.761Z,930.19
2019-02-02T06:41:40.788Z,930.20
2019-02-02T06:42:40.904Z,930.19
2019-02-02T06:43:40.682Z,930.21
2019-02-02T06:44:40.721Z,930.19
2019-02-02T06:45:40.855Z,930.20
2019-02-02T06:46:43.787Z,930.17
2019-02-02T06:47:40.841Z,930.17
2019-02-02T06:48:40.824Z,930.14
2019-02-02T06:49:40.913Z,930.13
2019-02-02T06:50:40.929Z,930.13
2019-02-02T06:51:40.936Z,930.08
2019-02-02T06:52:40.883Z,930.08
2019-02-02T06:53:40.857Z,930.06
2019-02-02T06:54:40.862Z,930.09
2019-02-02T06:55:40.976Z,930.09
2019-02-02T06:56:40.886Z,930.11
2019-02-02T06:57:40.903Z,930.13
2019-02-02T06:58:40.911Z,930.15
2019-02-02T06:59:40.947Z,930.16
2019-02-02T07:00:41.178Z,930.17
2019-02-02T07:01:41.093Z,930.18
2019-02-02T07:02:41.111Z,930.21
2019-02-02T07:03:41.011Z,930.20
2019-02-02T07:04:41.035Z,930.21
2019-02-02T07:05:41.188Z,930.23
2019-02-02T07:06:41.081Z,930.21
2019-02-02T07:07:41.208Z,930.25
2019-02-02T07:08:41.102Z,930.27
2019-02-02T07:09:41.220Z,930.31
2019-02-02T07:10:41.343Z,930.33
2019-02-02T07:11:41.136Z,930.34
2019-02-02T07:12:41.157Z,930.35
2019-02-02T07:13:41.166Z,930.33
2019-02-02T07:14:41.177Z,930.37
2019-02-02T07:15:41.309Z,930.36
2019-02-02T07:16:41.213Z,930.30
2019-02-02T07:17:41.223Z,930.32
2019-02-02T07:18:41.239Z,930.32
2019-02-02T07:19:41.280Z,930.31
2019-02-02T07:20:41.438Z,930.34
2019-02-02T07:21:41.405Z,930.28
2019-02-02T07:22:41.288Z,930.33
2019-02-02T07:23:41.308Z,930.33
2019-02-02T07:24:41.351Z,930.37
2019-02-02T07:25:41.464Z,930.36
2019-02-02T07:26:41.417Z,930.34
2019-02-02T07:27:41.407Z,930.37
2019-02-02T07:28:41.611Z,930.38
2019-02-02T07:29:41.418Z,930.36
2019-02-02T07:30:41.526Z,930.39
2019-02-02T07:31:41.464Z,930.42
2019-02-02T07:32:41.472Z,930.43
2019-02-02T07:33:41.526Z,930.45
2019-02-02T07:34:41.610Z,930.44
2019-02-02T07:35:41.680Z,930.47
2019-02-02T07:36:41.645Z,930.41
2019-02-02T07:37:41.553Z,930.46
2019-02-02T07:38:41.682Z,930.48
2019-02-02T07:39:41.594Z,930.52
2019-02-02T07:40:41.699Z,930.54
2019-02-02T07:41:41.729Z,930.55
2019-02-02T07:42:41.603Z,930.56
2019-02-02T07:43:41.618Z,930.56
2019-02-02T07:44:41.770Z,930.57
2019-02-02T07:45:41.884Z,930.57
2019-02-02T07:46:41.797Z,930.59
2019-02-02T07:47:41.813Z,930.58
2019-02-02T07:48:41.720Z,930.61
2019-02-02T07:49:41.731Z,930.60
2019-02-02T07:50:41.808Z,930.60
2019-02-02T07:51:41.770Z,930.63
2019-02-02T07:52:41.779Z,930.64
2019-02-02T07:53:41.786Z,930.58
2019-02-02T07:54:41.931Z,930.61
2019-02-02T07:55:42.040Z,930.62
2019-02-02T07:56:41.839Z,930.64
2019-02-02T07:57:41.850Z,930.65
2019-02-02T07:58:41.995Z,930.62
2019-02-02T07:59:41.879Z,930.67
2019-02-02T08:00:42.069Z,930.67
2019-02-02T08:01:41.927Z,930.66
2019-02-02T08:02:41.939Z,930.67
2019-02-02T08:03:42.067Z,930.72
2019-02-02T08:04:41.963Z,930.69
2019-02-02T08:05:42.093Z,930.65
2019-02-02T08:06:42.110Z,930.67
2019-02-02T08:07:42.065Z,930.71
2019-02-02T08:08:42.030Z,930.70
2019-02-02T08:09:42.071Z,930.71
2019-02-02T08:10:42.273Z,930.68
2019-02-02T08:11:42.185Z,930.67
2019-02-02T08:12:42.089Z,930.67
2019-02-02T08:13:42.171Z,930.66
2019-02-02T08:14:42.126Z,930.60
2019-02-02T08:15:42.279Z,930.61
2019-02-02T08:16:42.142Z,930.59
2019-02-02T08:17:42.172Z,930.60
2019-02-02T08:18:42.186Z,930.58
2019-02-02T08:19:42.204Z,930.57
2019-02-02T08:20:42.315Z,930.59
2019-02-02T08:21:42.218Z,930.58
2019-02-02T08:22:42.359Z,930.53
2019-02-02T08:23:42.371Z,930.51
2019-02-02T08:24:42.294Z,930.45
2019-02-02T08:25:42.551Z,930.41
2019-02-02T08:26:42.318Z,930.40
2019-02-02T08:27:42.432Z,930.40
2019-02-02T08:28:42.445Z,930.40
2019-02-02T08:29:42.472Z,930.39
2019-02-02T08:30:52.098Z,930.43
2019-02-02T08:31:42.376Z,930.44
2019-02-02T08:32:42.392Z,930.40
2019-02-02T08:33:45.257Z,930.39
2019-02-02T08:34:42.541Z,930.41
2019-02-02T08:35:42.655Z,930.45
2019-02-02T08:36:42.448Z,930.45
2019-02-02T08:37:42.468Z,930.46
2019-02-02T08:38:42.493Z,930.48
2019-02-02T08:39:42.488Z,930.52
2019-02-02T08:40:42.727Z,930.52
2019-02-02T08:41:42.653Z,930.54
2019-02-02T08:42:42.555Z,930.56
2019-02-02T08:43:42.551Z,930.58
2019-02-02T08:44:42.604Z,930.60
2019-02-02T08:45:42.746Z,930.62
2019-02-02T08:46:42.719Z,930.65
2019-02-02T08:47:42.640Z,930.67
2019-02-02T08:48:42.643Z,930.72
2019-02-02T08:49:42.657Z,930.75
2019-02-02T08:50:42.708Z,930.79
2019-02-02T08:51:42.795Z,930.76
2019-02-02T08:52:42.697Z,930.77
2019-02-02T08:53:42.701Z,930.75
2019-02-02T08:54:42.733Z,930.77
2019-02-02T08:55:42.785Z,930.78
2019-02-02T08:56:42.778Z,930.77
2019-02-02T08:57:42.977Z,930.83
2019-02-02T08:58:42.807Z,930.89
2019-02-02T08:59:42.807Z,930.94
2019-02-02T09:00:42.963Z,931.02
2019-02-02T09:01:42.956Z,931.06
2019-02-02T09:02:42.853Z,931.12
2019-02-02T09:03:42.927Z,931.15
2019-02-02T09:04:42.997Z,931.21
2019-02-02T09:05:42.983Z,931.16
2019-02-02T09:06:43.023Z,931.15
2019-02-02T09:07:43.131Z,931.24
2019-02-02T09:08:42.996Z,931.24
2019-02-02T09:09:42.980Z,931.28
2019-02-02T09:10:43.238Z,931.33
2019-02-02T09:11:42.994Z,931.29
2019-02-02T09:12:43.010Z,931.30
2019-02-02T09:13:43.131Z,931.26
2019-02-02T09:14:43.073Z,931.26
2019-02-02T09:15:43.209Z,931.22
2019-02-02T09:16:43.076Z,931.18
2019-02-02T09:17:43.080Z,931.16
2019-02-02T09:18:43.099Z,931.13
2019-02-02T09:19:43.231Z,931.18
2019-02-02T09:20:43.177Z,931.19
2019-02-02T09:21:43.140Z,931.12
2019-02-02T09:22:43.156Z,931.19
2019-02-02T09:23:43.288Z,931.19
2019-02-02T09:24:43.302Z,931.19
2019-02-02T09:25:43.480Z,931.18
2019-02-02T09:26:43.215Z,931.16
2019-02-02T09:27:43.248Z,931.15
2019-02-02T09:28:43.285Z,931.10
2019-02-02T09:29:43.289Z,931.07
2019-02-02T09:30:43.448Z,931.15
2019-02-02T09:31:43.351Z,931.16
2019-02-02T09:32:43.439Z,931.20
2019-02-02T09:33:43.334Z,931.23
2019-02-02T09:34:43.472Z,931.30
2019-02-02T09:35:43.598Z,931.38
2019-02-02T09:36:43.393Z,931.32
2019-02-02T09:37:43.527Z,931.31
2019-02-02T09:38:43.436Z,931.33
2019-02-02T09:39:43.558Z,931.30
2019-02-02T09:40:43.626Z,931.27
2019-02-02T09:41:43.488Z,931.24
2019-02-02T09:42:43.493Z,931.22
2019-02-02T09:43:43.520Z,931.22
2019-02-02T09:44:43.650Z,931.21
2019-02-02T09:45:43.773Z,931.31
2019-02-02T09:46:43.686Z,931.31
2019-02-02T09:47:43.703Z,931.32
2019-02-02T09:48:43.622Z,931.34
2019-02-02T09:49:43.642Z,931.29
2019-02-02T09:50:43.758Z,931.33
2019-02-02T09:51:43.656Z,931.28
2019-02-02T09:52:43.796Z,931.31
2019-02-02T09:53:43.738Z,931.35
2019-02-02T09:54:43.723Z,931.33
2019-02-02T09:55:43.799Z,931.36
2019-02-02T09:56:43.749Z,931.43
2019-02-02T09:57:43.780Z,931.37
2019-02-02T09:58:43.771Z,931.38
2019-02-02T09:59:43.921Z,931.44
2019-02-02T10:00:44.093Z,931.45
2019-02-02T10:01:43.830Z,931.46
2019-02-02T10:02:45.839Z,931.42
2019-02-02T10:03:43.882Z,931.47
2019-02-02T10:04:43.916Z,931.42
2019-02-02T10:05:44.017Z,931.40
2019-02-02T10:06:44.048Z,931.39
2019-02-02T10:07:43.952Z,931.42
2019-02-02T10:08:43.997Z,931.40
2019-02-02T10:09:44.108Z,931.39
2019-02-02T10:10:44.164Z,931.35
2019-02-02T10:11:44.132Z,931.35
2019-02-02T10:12:44.041Z,931.35
2019-02-02T10:13:44.045Z,931.33
2019-02-02T10:14:44.065Z,931.37
2019-02-02T10:15:44.211Z,931.37
2019-02-02T10:16:44.271Z,931.34
2019-02-02T10:17:44.240Z,931.34
2019-02-02T10:18:44.269Z,931.31
2019-02-02T10:19:44.275Z,931.32
2019-02-02T10:20:44.297Z,931.31
2019-02-02T10:21:44.246Z,931.32
2019-02-02T10:22:44.216Z,931.31
2019-02-02T10:23:44.273Z,931.32
2019-02-02T10:24:44.238Z,931.29
2019-02-02T10:25:44.270Z,931.34
2019-02-02T10:26:44.357Z,931.30
2019-02-02T10:27:44.356Z,931.29
2019-02-02T10:28:44.431Z,931.26
2019-02-02T10:29:44.454Z,931.24
2019-02-02T10:30:44.471Z,931.24
2019-02-02T10:31:44.419Z,931.18
2019-02-02T10:32:44.405Z,931.15
2019-02-02T10:33:44.401Z,931.08
2019-02-02T10:34:44.430Z,931.05
2019-02-02T10:35:44.575Z,931.05
2019-02-02T10:36:44.675Z,931.06
2019-02-02T10:37:44.490Z,931.06
2019-02-02T10:38:44.511Z,931.07
2019-02-02T10:39:44.537Z,931.10
2019-02-02T10:40:44.651Z,931.05
2019-02-02T10:41:44.592Z,931.11
2019-02-02T10:42:44.695Z,931.10
2019-02-02T10:43:44.713Z,931.13
2019-02-02T10:44:44.738Z,931.13
2019-02-02T10:45:44.626Z,931.16
2019-02-02T10:46:44.812Z,931.17
2019-02-02T10:47:44.719Z,931.25
2019-02-02T10:48:44.809Z,931.31
2019-02-02T10:49:44.696Z,931.34
2019-02-02T10:50:44.738Z,931.34
2019-02-02T10:51:44.965Z,931.34
2019-02-02T10:52:44.776Z,931.39
2019-02-02T10:53:44.911Z,931.35
2019-02-02T10:54:44.932Z,931.30
2019-02-02T10:55:44.830Z,931.27
2019-02-02T10:56:45.016Z,931.23
2019-02-02T10:57:44.870Z,931.21
2019-02-02T10:58:44.894Z,931.28
2019-02-02T10:59:44.906Z,931.33
2019-02-02T11:00:44.918Z,931.15
2019-02-02T11:01:51.177Z,931.20
2019-02-02T11:02:45.077Z,931.17
2019-02-02T11:03:45.110Z,931.18
2019-02-02T11:04:45.215Z,931.14
2019-02-02T11:05:45.037Z,931.17
2019-02-02T11:06:45.134Z,931.17
2019-02-02T11:07:45.218Z,931.19
2019-02-02T11:08:45.203Z,931.20
2019-02-02T11:09:45.101Z,931.16
2019-02-02T11:10:45.547Z,931.17
2019-02-02T11:11:45.287Z,931.16
2019-02-02T11:12:45.228Z,931.13
2019-02-02T11:13:45.208Z,931.17
2019-02-02T11:14:45.473Z,931.19
2019-02-02T11:15:45.505Z,931.20
2019-02-02T11:16:45.523Z,931.25
2019-02-02T11:17:45.313Z,931.30
2019-02-02T11:18:45.363Z,931.28
2019-02-02T11:19:45.409Z,931.28
2019-02-02T11:20:45.350Z,931.31
2019-02-02T11:21:45.483Z,931.30
2019-02-02T11:22:45.534Z,931.35
2019-02-02T11:23:45.557Z,931.34
2019-02-02T11:24:45.452Z,931.38
2019-02-02T11:25:45.490Z,931.33
2019-02-02T11:26:45.825Z,931.37
2019-02-02T11:27:45.619Z,931.37
2019-02-02T11:28:45.713Z,931.36
2019-02-02T11:29:45.568Z,931.31
2019-02-02T11:30:45.721Z,931.33
2019-02-02T11:31:45.892Z,931.36
2019-02-02T11:32:45.765Z,931.32
2019-02-02T11:33:45.674Z,931.30
2019-02-02T11:34:45.811Z,931.31
2019-02-02T11:35:45.724Z,931.27
2019-02-02T11:36:45.914Z,931.29
2019-02-02T11:37:45.772Z,931.29
2019-02-02T11:38:45.792Z,931.29
2019-02-02T11:39:45.818Z,931.31
2019-02-02T11:40:45.875Z,931.33
2019-02-02T11:41:45.925Z,931.37
2019-02-02T11:42:46.016Z,931.38
2019-02-02T11:43:46.045Z,931.38
2019-02-02T11:44:46.070Z,931.44
2019-02-02T11:45:46.107Z,931.44
2019-02-02T11:46:46.118Z,931.47
2019-02-02T11:47:46.016Z,931.47
2019-02-02T11:48:46.069Z,931.46
2019-02-02T11:49:46.213Z,931.45
2019-02-02T11:50:46.226Z,931.39
2019-02-02T11:51:46.342Z,931.39
2019-02-02T11:52:46.182Z,931.40
2019-02-02T11:53:46.196Z,931.39
2019-02-02T11:54:46.338Z,931.45
2019-02-02T11:55:46.365Z,931.40
2019-02-02T11:56:46.319Z,931.42
2019-02-02T11:57:46.390Z,931.45
2019-02-02T11:58:46.348Z,931.47
2019-02-02T11:59:46.355Z,931.51
2019-02-02T12:00:46.372Z,931.80
2019-02-02T12:01:46.408Z,932.25
2019-02-02T12:02:49.535Z,932.24
2019-02-02T12:03:46.486Z,932.07
2019-02-02T12:04:46.500Z,931.98
2019-02-02T12:05:46.517Z,931.92
2019-02-02T12:06:49.061Z,931.78
2019-02-02T12:07:46.787Z,931.67
2019-02-02T12:08:49.275Z,931.62
2019-02-02T12:09:46.635Z,931.57
2019-02-02T12:10:46.681Z,931.49
2019-02-02T12:11:46.663Z,931.41
2019-02-02T12:12:46.766Z,931.47
2019-02-02T12:13:46.857Z,931.50
2019-02-02T12:14:46.766Z,931.55
2019-02-02T12:15:46.787Z,931.54
2019-02-02T12:16:46.951Z,931.62
2019-02-02T12:17:46.906Z,931.65
2019-02-02T12:18:46.887Z,931.75
2019-02-02T12:19:46.894Z,931.90
2019-02-02T12:20:47.054Z,931.99
2019-02-02T12:21:46.974Z,932.03
2019-02-02T12:22:47.119Z,932.04
2019-02-02T12:23:47.145Z,932.10
2019-02-02T12:24:47.095Z,932.11
2019-02-02T12:25:47.110Z,931.94
2019-02-02T12:26:47.121Z,931.76
2019-02-02T12:27:47.304Z,931.74
2019-02-02T12:28:47.283Z,931.75